Time;durP1;ratioP1;P1;durP2;ratioP2;P2;SDS_P1;SDS_P2;PMS_P1;PMS_P2;Temp;Humidity;BMP_temperature;BMP_pressure;BME280_temperature;BME280_humidity;BME280_pressure;Samples;Min_cycle;Max_cycle;Signal;HPM_P1;HPM_P2
2023/08/07 00:01:15;;;;;;;3.00;1.50;;;24.90;65.70;;;;;;219216;1273;22520;-53
2023/08/07 00:06:22;;;;;;;4.20;1.60;;;24.90;65.90;;;;;;219244;1274;22535;-52
2023/08/07 00:11:29;;;;;;;2.60;1.30;;;24.90;65.50;;;;;;219215;1283;22575;-52
2023/08/07 00:16:33;;;;;;;4.00;1.50;;;24.90;65.50;;;;;;219456;1280;22537;-51
2023/08/07 00:21:38;;;;;;;3.60;1.40;;;24.80;66.00;;;;;;219492;1283;25418;-52
2023/08/07 00:26:52;;;;;;;1.60;1.20;;;24.80;65.40;;;;;;219408;1271;25421;-49
2023/08/07 00:31:56;;;;;;;1.70;1.30;;;24.70;65.50;;;;;;219436;1280;26292;-51
2023/08/07 00:37:02;;;;;;;1.30;1.10;;;24.80;65.40;;;;;;219382;1280;25023;-51
2023/08/07 00:42:10;;;;;;;1.90;1.20;;;24.80;65.30;;;;;;219464;1280;22536;-51
2023/08/07 00:47:14;;;;;;;1.10;1.10;;;24.70;65.70;;;;;;219523;1283;22736;-50
2023/08/07 00:52:18;;;;;;;1.30;0.90;;;24.80;65.40;;;;;;219414;1274;25421;-52
2023/08/07 00:57:24;;;;;;;1.50;1.20;;;24.80;65.50;;;;;;219326;1280;25346;-52
2023/08/07 01:02:33;;;;;;;1.50;1.30;;;24.70;65.50;;;;;;219392;1280;25360;-51
2023/08/07 01:07:37;;;;;;;1.80;1.30;;;24.60;65.50;;;;;;219429;1280;25261;-52
2023/08/07 01:12:58;;;;;;;2.80;1.40;;;24.60;65.70;;;;;;219536;1274;24516;-53
2023/08/07 01:18:06;;;;;;;1.40;1.00;;;24.60;65.80;;;;;;219350;1274;24755;-49
2023/08/07 01:23:18;;;;;;;1.80;1.20;;;24.60;65.70;;;;;;219469;1274;25252;-49
2023/08/07 01:28:32;;;;;;;2.00;1.30;;;24.60;65.80;;;;;;219211;1280;24300;-51
2023/08/07 01:33:57;;;;;;;1.80;1.30;;;24.60;65.70;;;;;;219389;1286;22545;-50
2023/08/07 01:39:03;;;;;;;1.30;1.20;;;24.60;66.00;;;;;;219381;1274;23007;-50
2023/08/07 01:44:07;;;;;;;1.30;1.10;;;24.60;65.60;;;;;;219412;1273;25454;-53
2023/08/07 01:49:12;;;;;;;1.20;1.10;;;24.50;65.60;;;;;;219367;1280;25478;-51
2023/08/07 01:54:16;;;;;;;1.30;1.20;;;24.50;65.70;;;;;;219478;1280;25582;-51
2023/08/07 01:59:21;;;;;;;1.70;1.20;;;24.50;65.70;;;;;;218952;1283;24467;-49
2023/08/07 02:04:25;;;;;;;1.90;1.10;;;24.50;65.70;;;;;;222833;1267;24221;-52
2023/08/07 02:09:29;;;;;;;1.30;1.20;;;24.60;65.40;;;;;;223155;1282;22530;-50
2023/08/07 02:14:34;;;;;;;1.50;1.20;;;24.70;65.20;;;;;;219448;1274;190557;-52
2023/08/07 02:19:38;;;;;;;1.00;0.80;;;24.60;65.30;;;;;;219258;1276;22530;-47
2023/08/07 02:24:42;;;;;;;1.50;1.40;;;24.50;65.60;;;;;;219543;1280;24395;-51
2023/08/07 02:29:47;;;;;;;1.10;1.00;;;24.50;65.70;;;;;;219366;1279;22623;-55
2023/08/07 02:34:51;;;;;;;1.20;1.00;;;24.40;65.80;;;;;;219505;1283;22552;-50
2023/08/07 02:39:55;;;;;;;1.30;1.00;;;24.40;65.90;;;;;;219414;1271;22665;-53
2023/08/07 02:45:00;;;;;;;1.10;1.10;;;24.40;65.90;;;;;;219232;1277;24153;-52
2023/08/07 02:50:04;;;;;;;1.40;1.10;;;24.40;65.90;;;;;;219399;1286;22577;-52
2023/08/07 02:55:08;;;;;;;1.50;1.20;;;24.40;65.90;;;;;;219505;1280;24220;-51
2023/08/07 03:00:13;;;;;;;2.80;0.90;;;24.30;66.00;;;;;;219388;1274;24225;-51
2023/08/07 03:05:18;;;;;;;0.90;0.90;;;24.30;66.10;;;;;;219414;1280;22577;-48
2023/08/07 03:10:22;;;;;;;1.00;0.90;;;24.30;66.40;;;;;;219467;1276;22683;-52
2023/08/07 03:15:29;;;;;;;1.20;1.10;;;24.30;66.00;;;;;;219191;1273;22528;-55
2023/08/07 03:20:36;;;;;;;3.70;0.90;;;24.30;66.10;;;;;;219359;1281;22531;-50
2023/08/07 03:25:41;;;;;;;1.20;1.10;;;24.30;66.10;;;;;;219487;1273;22526;-49
2023/08/07 03:30:46;;;;;;;1.20;1.10;;;24.30;66.00;;;;;;219399;1284;25391;-53
2023/08/07 03:35:51;;;;;;;0.80;0.80;;;24.30;66.10;;;;;;219376;1280;22720;-50
2023/08/07 03:40:56;;;;;;;1.20;1.10;;;24.30;66.00;;;;;;219382;1273;24764;-53
2023/08/07 03:46:01;;;;;;;1.00;1.00;;;24.30;66.10;;;;;;219301;1280;24218;-48
2023/08/07 03:51:08;;;;;;;1.30;0.90;;;24.20;66.10;;;;;;219347;1280;22552;-54
2023/08/07 03:56:19;;;;;;;0.90;0.90;;;24.30;66.10;;;;;;219389;1286;24288;-53
2023/08/07 04:01:23;;;;;;;0.90;0.90;;;24.20;65.90;;;;;;226767;1284;22520;-51
2023/08/07 04:06:30;;;;;;;1.00;0.90;;;24.30;65.70;;;;;;221342;1283;23897;-49
2023/08/07 04:11:34;;;;;;;1.00;0.90;;;24.40;65.20;;;;;;220380;1279;24237;-47
2023/08/07 04:16:42;;;;;;;0.90;0.70;;;24.40;65.40;;;;;;219508;1283;24078;-52
2023/08/07 04:21:47;;;;;;;1.10;1.00;;;24.30;65.60;;;;;;219421;1281;22620;-52
2023/08/07 04:26:51;;;;;;;1.20;1.10;;;24.30;65.90;;;;;;219446;1286;22659;-51
2023/08/07 04:31:56;;;;;;;1.00;0.90;;;24.20;66.00;;;;;;219387;1281;22688;-49
2023/08/07 04:37:00;;;;;;;1.20;1.10;;;24.20;66.30;;;;;;220485;1286;24130;-50
2023/08/07 04:42:05;;;;;;;1.20;0.90;;;24.20;65.70;;;;;;219290;1284;25322;-51
2023/08/07 04:47:09;;;;;;;0.90;0.90;;;24.30;65.80;;;;;;219320;1283;22623;-51
2023/08/07 04:52:13;;;;;;;1.20;1.10;;;24.20;66.00;;;;;;219349;1286;24128;-50
2023/08/07 04:57:29;;;;;;;1.10;0.80;;;24.20;65.90;;;;;;219455;1283;23908;-51
2023/08/07 05:02:33;;;;;;;1.70;1.10;;;24.20;66.00;;;;;;219460;1280;24755;-50
2023/08/07 05:07:41;;;;;;;0.80;0.80;;;24.20;65.90;;;;;;219453;1281;24233;-49
2023/08/07 05:12:45;;;;;;;1.30;1.20;;;24.20;65.90;;;;;;219363;1281;24187;-51
2023/08/07 05:17:50;;;;;;;1.10;1.10;;;24.20;65.90;;;;;;219473;1285;22721;-51
2023/08/07 05:22:56;;;;;;;1.10;1.00;;;24.20;65.90;;;;;;219409;1286;24189;-55
2023/08/07 05:28:00;;;;;;;0.90;0.90;;;24.20;66.00;;;;;;219346;1272;24228;-50
2023/08/07 05:33:04;;;;;;;0.80;0.80;;;24.20;65.80;;;;;;219213;1286;22531;-51
2023/08/07 05:38:08;;;;;;;3.70;1.00;;;24.20;65.80;;;;;;219392;1284;22537;-52
2023/08/07 05:43:13;;;;;;;1.50;1.00;;;24.20;65.80;;;;;;219365;1281;25393;-48
2023/08/07 05:48:17;;;;;;;1.50;0.90;;;24.20;65.90;;;;;;219309;1275;24273;-48
2023/08/07 05:53:21;;;;;;;1.90;1.80;;;24.10;65.80;;;;;;219358;1287;22592;-48
2023/08/07 05:58:25;;;;;;;1.80;0.90;;;24.20;65.80;;;;;;219432;1284;22560;-51
2023/08/07 06:03:29;;;;;;;0.90;0.90;;;24.20;65.80;;;;;;219356;1281;22809;-52
2023/08/07 06:08:34;;;;;;;2.70;1.00;;;24.10;65.70;;;;;;219393;1281;23921;-52
2023/08/07 06:13:40;;;;;;;0.80;0.80;;;24.20;65.80;;;;;;219340;1283;22594;-52
2023/08/07 06:18:44;;;;;;;4.20;0.90;;;24.20;66.20;;;;;;219242;1286;22766;-52
2023/08/07 06:23:49;;;;;;;1.20;0.80;;;24.20;66.20;;;;;;219372;1273;24347;-52
2023/08/07 06:28:53;;;;;;;1.50;0.80;;;24.20;65.70;;;;;;219445;1285;22540;-51
2023/08/07 06:33:59;;;;;;;1.10;0.80;;;24.20;65.80;;;;;;219094;1280;24304;-52
2023/08/07 06:39:04;;;;;;;3.40;1.30;;;24.10;65.70;;;;;;219210;1273;24408;-49
2023/08/07 06:44:08;;;;;;;7.20;1.60;;;24.30;66.50;;;;;;219277;1282;24214;-52
2023/08/07 06:49:12;;;;;;;5.60;1.80;;;24.30;67.30;;;;;;219134;1279;22531;-48
2023/08/07 06:54:16;;;;;;;5.20;1.70;;;24.30;68.60;;;;;;219014;1279;22547;-47
2023/08/07 06:59:20;;;;;;;5.10;1.40;;;24.30;68.00;;;;;;219220;1279;22793;-50
2023/08/07 07:04:24;;;;;;;7.90;1.60;;;24.30;67.30;;;;;;219070;1280;23946;-47
2023/08/07 07:09:29;;;;;;;3.10;1.70;;;24.20;66.30;;;;;;219095;1283;24206;-51
2023/08/07 07:14:36;;;;;;;5.60;1.40;;;24.10;65.80;;;;;;219244;1280;24350;-49
2023/08/07 07:19:40;;;;;;;3.80;1.50;;;24.00;65.80;;;;;;219161;1280;22531;-49
2023/08/07 07:24:44;;;;;;;5.60;1.60;;;23.90;65.50;;;;;;219320;1283;22550;-50
2023/08/07 07:29:49;;;;;;;1.80;1.40;;;23.90;65.20;;;;;;219272;1286;26769;-47
2023/08/07 07:34:53;;;;;;;3.50;1.50;;;23.80;65.10;;;;;;220398;1286;22535;-48
2023/08/07 07:39:57;;;;;;;2.20;1.50;;;23.70;64.20;;;;;;219311;1287;25511;-53
2023/08/07 07:45:05;;;;;;;1.70;1.60;;;23.80;64.00;;;;;;219068;1283;26230;-52
2023/08/07 07:50:10;;;;;;;2.00;1.90;;;23.90;63.90;;;;;;219361;1284;22767;-51
2023/08/07 07:55:14;;;;;;;3.90;1.70;;;23.90;63.30;;;;;;219288;1286;22553;-49
2023/08/07 08:00:19;;;;;;;3.70;1.50;;;23.80;63.60;;;;;;219330;1286;23902;-51
2023/08/07 08:05:23;;;;;;;1.80;1.30;;;23.80;63.10;;;;;;219317;1287;22532;-48
2023/08/07 08:10:27;;;;;;;6.50;2.00;;;23.80;63.80;;;;;;219404;1286;22531;-56
2023/08/07 08:15:32;;;;;;;4.80;1.50;;;23.90;63.00;;;;;;219366;1281;22695;-60
2023/08/07 08:20:37;;;;;;;3.40;1.50;;;23.90;63.80;;;;;;219157;1287;22546;-59
2023/08/07 08:25:41;;;;;;;4.40;1.60;;;23.90;62.30;;;;;;219086;1287;22543;-56
2023/08/07 08:30:45;;;;;;;7.00;2.40;;;23.90;62.10;;;;;;219228;1273;25347;-58
2023/08/07 08:35:49;;;;;;;3.60;1.90;;;23.80;61.50;;;;;;219136;1280;22673;-57
2023/08/07 08:40:53;;;;;;;3.20;2.10;;;23.90;61.50;;;;;;219206;1287;25338;-56
2023/08/07 08:45:58;;;;;;;3.30;2.20;;;23.80;61.70;;;;;;219109;1280;24308;-56
2023/08/07 08:51:03;;;;;;;6.50;1.80;;;23.80;62.20;;;;;;219303;1273;24222;-53
2023/08/07 08:56:08;;;;;;;4.60;2.00;;;23.80;61.50;;;;;;219377;1283;22659;-56
2023/08/07 09:01:13;;;;;;;9.00;2.20;;;23.80;61.20;;;;;;219057;1287;24228;-50
2023/08/07 09:06:18;;;;;;;4.30;2.00;;;23.90;60.90;;;;;;219215;1280;23437;-54
2023/08/07 09:11:22;;;;;;;4.40;1.80;;;23.90;60.70;;;;;;219364;1283;22720;-55
2023/08/07 09:16:28;;;;;;;5.30;2.40;;;24.00;61.10;;;;;;219248;1279;24162;-50
2023/08/07 09:21:33;;;;;;;5.20;2.00;;;24.20;63.00;;;;;;219386;1283;25335;-55
2023/08/07 09:26:42;;;;;;;5.10;2.20;;;24.10;64.10;;;;;;219138;1286;22540;-52
2023/08/07 09:31:46;;;;;;;3.00;2.10;;;24.20;64.00;;;;;;219250;1274;25414;-57
2023/08/07 09:36:52;;;;;;;4.30;2.10;;;24.20;63.40;;;;;;219149;1286;23270;-53
2023/08/07 09:41:56;;;;;;;6.30;2.10;;;24.30;63.50;;;;;;219248;1274;22682;-53
2023/08/07 09:47:12;;;;;;;6.20;2.20;;;24.40;63.10;;;;;;219048;1272;24279;-53
2023/08/07 09:52:16;;;;;;;13.10;2.50;;;24.50;62.60;;;;;;219336;1285;24036;-55
2023/08/07 09:57:21;;;;;;;12.70;2.60;;;24.60;62.80;;;;;;219160;1273;22534;-53
2023/08/07 10:02:25;;;;;;;4.80;2.10;;;24.70;62.50;;;;;;219496;1285;25437;-53
2023/08/07 10:07:29;;;;;;;9.80;1.90;;;24.50;62.20;;;;;;219126;1280;25246;-54
2023/08/07 10:12:34;;;;;;;3.80;2.10;;;24.70;61.50;;;;;;220154;1280;22557;-57
2023/08/07 10:17:39;;;;;;;5.20;1.90;;;24.70;60.50;;;;;;219214;1286;24218;-56
2023/08/07 10:22:45;;;;;;;3.00;1.80;;;24.70;61.20;;;;;;219197;1286;25495;-55
2023/08/07 10:27:53;;;;;;;6.40;1.90;;;24.60;61.70;;;;;;219389;1279;24240;-61
2023/08/07 10:32:58;;;;;;;6.50;1.90;;;24.60;61.90;;;;;;219342;1280;22639;-58
2023/08/07 10:38:10;;;;;;;6.20;1.80;;;24.70;62.40;;;;;;219338;1287;22550;-56
2023/08/07 10:43:17;;;;;;;;;;;24.80;61.60;;;;;;219094;1286;22515;-58
2023/08/07 10:48:21;;;;;;;2.40;1.60;;;24.80;61.00;;;;;;219418;1280;23905;-56
2023/08/07 10:53:36;;;;;;;1.90;1.60;;;24.90;60.70;;;;;;219332;1273;22537;-53
2023/08/07 10:58:41;;;;;;;3.00;2.00;;;24.90;60.70;;;;;;219256;1280;22510;-57
2023/08/07 11:03:56;;;;;;;2.20;1.60;;;25.00;60.20;;;;;;219057;1278;22605;-55
2023/08/07 11:09:05;;;;;;;11.90;2.00;;;25.10;60.00;;;;;;219024;1280;23878;-57
2023/08/07 11:14:19;;;;;;;2.40;1.70;;;25.10;59.50;;;;;;221368;1287;24614;-56
2023/08/07 11:19:24;;;;;;;4.10;1.70;;;25.10;59.80;;;;;;219089;1281;22544;-55
2023/08/07 11:24:29;;;;;;;4.00;2.00;;;25.10;60.00;;;;;;219330;1283;22557;-58
2023/08/07 11:29:33;;;;;;;1.70;1.50;;;25.10;59.90;;;;;;219144;1283;22533;-61
2023/08/07 11:34:37;;;;;;;2.70;1.90;;;25.00;59.80;;;;;;219247;1283;25482;-60
2023/08/07 11:39:42;;;;;;;2.20;1.80;;;25.00;60.30;;;;;;219388;1285;24236;-58
2023/08/07 11:44:46;;;;;;;9.90;2.20;;;25.20;60.80;;;;;;219409;1273;22558;-60
2023/08/07 11:49:52;;;;;;;7.10;2.60;;;25.10;59.70;;;;;;219275;1286;22553;-60
2023/08/07 11:54:57;;;;;;;12.70;3.10;;;25.10;60.30;;;;;;219432;1277;25326;-60
2023/08/07 12:00:02;;;;;;;7.50;3.40;;;25.20;60.50;;;;;;219312;1285;22553;-60
2023/08/07 12:05:10;;;;;;;5.90;2.60;;;25.10;60.60;;;;;;219157;1280;22533;-60
2023/08/07 12:10:15;;;;;;;7.60;2.80;;;25.10;60.40;;;;;;219310;1280;22547;-60
2023/08/07 12:15:19;;;;;;;7.10;3.10;;;25.20;59.40;;;;;;219406;1279;25865;-59
2023/08/07 12:20:24;;;;;;;8.50;3.30;;;25.10;59.40;;;;;;219454;1286;22560;-60
2023/08/07 12:25:28;;;;;;;5.10;2.80;;;25.10;60.10;;;;;;219280;1273;22608;-60
2023/08/07 12:30:35;;;;;;;5.50;3.20;;;25.10;59.50;;;;;;219239;1273;22540;-60
2023/08/07 12:35:40;;;;;;;5.50;2.90;;;25.20;59.80;;;;;;219336;1280;22629;-61
2023/08/07 12:40:44;;;;;;;6.70;2.20;;;25.20;59.50;;;;;;219221;1273;22928;-56
2023/08/07 12:45:48;;;;;;;5.70;2.60;;;25.20;58.90;;;;;;219335;1282;26187;-51
2023/08/07 12:50:56;;;;;;;8.10;2.20;;;25.30;59.40;;;;;;219359;1280;22652;-52
2023/08/07 12:56:01;;;;;;;3.40;2.10;;;25.10;59.40;;;;;;219385;1280;22537;-53
2023/08/07 13:01:05;;;;;;;4.80;3.40;;;25.10;58.80;;;;;;219523;1283;25359;-52
2023/08/07 13:06:11;;;;;;;5.90;2.30;;;25.10;58.70;;;;;;219363;1286;22541;-50
2023/08/07 13:11:15;;;;;;;20.70;4.50;;;25.40;58.30;;;;;;219379;1279;22546;-53
2023/08/07 13:16:20;;;;;;;10.80;4.10;;;25.40;60.50;;;;;;219057;1280;23040;-50
2023/08/07 13:21:24;;;;;;;14.60;4.80;;;25.30;60.00;;;;;;219122;1286;22552;-53
2023/08/07 13:26:28;;;;;;;13.10;3.60;;;25.30;62.70;;;;;;219275;1276;22837;-53
2023/08/07 13:31:33;;;;;;;13.90;3.40;;;25.40;62.20;;;;;;219272;1276;22646;-51
2023/08/07 13:36:38;;;;;;;9.30;3.00;;;25.20;62.10;;;;;;219748;1286;22556;-52
2023/08/07 13:41:42;;;;;;;6.40;3.00;;;25.30;63.40;;;;;;219292;1279;22592;-53
2023/08/07 13:46:47;;;;;;;7.60;3.40;;;25.20;61.80;;;;;;219276;1280;22557;-54
2023/08/07 13:51:51;;;;;;;6.60;3.10;;;25.20;62.50;;;;;;219262;1273;22533;-50
2023/08/07 13:56:56;;;;;;;7.70;2.70;;;25.20;62.50;;;;;;219665;1275;22560;-51
2023/08/07 14:02:01;;;;;;;13.20;3.20;;;25.10;61.90;;;;;;219645;1273;22541;-51
2023/08/07 14:07:06;;;;;;;10.50;3.10;;;25.10;62.10;;;;;;219537;1280;24279;-52
2023/08/07 14:12:11;;;;;;;7.80;3.00;;;25.10;61.20;;;;;;219641;1280;22582;-48
2023/08/07 14:17:16;;;;;;;6.60;2.70;;;25.10;60.80;;;;;;219508;1286;204266;-53
2023/08/07 14:22:21;;;;;;;5.00;2.40;;;25.00;61.40;;;;;;219473;1282;22665;-52
2023/08/07 14:27:26;;;;;;;6.00;2.70;;;25.00;61.30;;;;;;219311;1276;22795;-53
2023/08/07 14:32:30;;;;;;;8.40;2.70;;;24.90;60.90;;;;;;219446;1270;24284;-51
2023/08/07 14:37:34;;;;;;;5.20;2.40;;;24.90;61.80;;;;;;219451;1280;22536;-54
2023/08/07 14:42:39;;;;;;;6.50;2.70;;;25.10;65.10;;;;;;219439;1280;22553;-57
2023/08/07 14:47:44;;;;;;;6.10;2.50;;;25.10;63.10;;;;;;219424;1283;22553;-56
2023/08/07 14:52:49;;;;;;;3.20;2.20;;;25.10;64.40;;;;;;219413;1274;22537;-58
2023/08/07 14:57:54;;;;;;;4.30;1.90;;;25.20;63.40;;;;;;219573;1283;22667;-57
2023/08/07 15:02:58;;;;;;;3.60;2.00;;;25.20;64.00;;;;;;219391;1286;22527;-57
2023/08/07 15:08:03;;;;;;;6.60;2.10;;;25.10;63.60;;;;;;219233;1276;24077;-59
2023/08/07 15:13:07;;;;;;;5.00;1.90;;;25.10;63.60;;;;;;218956;1283;25357;-58
2023/08/07 15:18:12;;;;;;;4.50;2.10;;;25.20;63.60;;;;;;218812;1283;24070;-57
2023/08/07 15:23:17;;;;;;;5.40;3.10;;;25.30;63.20;;;;;;218772;1283;23928;-56
2023/08/07 15:28:22;;;;;;;4.90;1.50;;;25.10;63.00;;;;;;218903;1283;24029;-56
2023/08/07 15:33:27;;;;;;;4.80;1.70;;;25.00;62.50;;;;;;218687;1283;22553;-57
2023/08/07 15:38:36;;;;;;;3.00;1.30;;;25.00;62.50;;;;;;218976;1282;22533;-56
2023/08/07 15:43:41;;;;;;;5.20;1.70;;;25.00;62.50;;;;;;218788;1270;22540;-56
2023/08/07 15:48:46;;;;;;;2.70;1.60;;;24.90;62.90;;;;;;218768;1283;24256;-60
2023/08/07 15:53:52;;;;;;;3.70;1.70;;;24.90;63.50;;;;;;218880;1275;24217;-60
2023/08/07 15:58:57;;;;;;;2.60;1.60;;;24.80;63.30;;;;;;218922;1283;25637;-56
2023/08/07 16:04:02;;;;;;;3.40;1.40;;;24.80;63.20;;;;;;218784;1279;25505;-57
2023/08/07 16:09:09;;;;;;;4.20;1.80;;;24.70;62.90;;;;;;218697;1286;22648;-59
2023/08/07 16:14:14;;;;;;;4.30;1.50;;;24.60;62.90;;;;;;218845;1283;22776;-65
2023/08/07 16:19:19;;;;;;;5.60;1.40;;;24.60;63.10;;;;;;218944;1282;23358;-53
2023/08/07 16:24:29;;;;;;;7.70;1.30;;;24.50;62.30;;;;;;218720;1276;24875;-46
2023/08/07 16:29:37;;;;;;;4.30;1.60;;;24.30;62.10;;;;;;218504;1285;22816;-50
2023/08/07 16:34:41;;;;;;;13.50;2.10;;;24.20;61.30;;;;;;218944;1279;22539;-47
2023/08/07 16:39:47;;;;;;;7.60;2.70;;;24.30;61.30;;;;;;218867;1283;22587;-47
2023/08/07 16:44:52;;;;;;;2.10;1.20;;;24.20;62.50;;;;;;218833;1276;26291;-48
2023/08/07 16:49:57;;;;;;;5.80;2.10;;;24.10;61.50;;;;;;218865;1282;22572;-53
2023/08/07 16:55:02;;;;;;;5.70;1.80;;;24.30;61.70;;;;;;218932;1283;22613;-51
2023/08/07 17:00:10;;;;;;;7.70;1.60;;;24.40;61.30;;;;;;224493;1285;24544;-50
2023/08/07 17:05:14;;;;;;;7.70;1.60;;;24.60;60.30;;;;;;219433;1276;25548;-48
2023/08/07 17:10:19;;;;;;;6.00;1.50;;;24.70;60.20;;;;;;218742;1286;22731;-50
2023/08/07 17:15:24;;;;;;;3.90;1.60;;;24.70;60.50;;;;;;218823;1279;22549;-50
2023/08/07 17:20:31;;;;;;;5.70;1.50;;;24.60;61.00;;;;;;219023;1276;24225;-49
2023/08/07 17:25:36;;;;;;;6.90;1.60;;;24.60;61.00;;;;;;219020;1283;22539;-53
2023/08/07 17:30:41;;;;;;;2.10;0.90;;;24.60;61.20;;;;;;218867;1277;22529;-50
2023/08/07 17:35:45;;;;;;;2.40;1.20;;;24.60;61.20;;;;;;219051;1283;25756;-51
2023/08/07 17:40:50;;;;;;;3.80;1.20;;;24.60;61.00;;;;;;219274;1283;24990;-49
2023/08/07 17:45:55;;;;;;;1.70;1.10;;;24.50;61.30;;;;;;218972;1283;25533;-52
2023/08/07 17:51:00;;;;;;;3.30;1.00;;;24.50;61.40;;;;;;218928;1283;22811;-50
2023/08/07 17:56:05;;;;;;;1.50;0.80;;;24.50;61.20;;;;;;219133;1276;22549;-54
2023/08/07 18:01:10;;;;;;;1.40;0.90;;;24.50;61.10;;;;;;219058;1286;24402;-51
2023/08/07 18:06:16;;;;;;;1.90;0.90;;;24.50;61.30;;;;;;218923;1284;22540;-50
2023/08/07 18:11:24;;;;;;;1.20;0.80;;;24.50;61.10;;;;;;219005;1276;22588;-50
2023/08/07 18:16:29;;;;;;;1.70;1.30;;;24.50;61.20;;;;;;218896;1276;22591;-52
2023/08/07 18:21:34;;;;;;;1.50;1.00;;;24.50;61.20;;;;;;218901;1288;24505;-50
2023/08/07 18:26:42;;;;;;;1.80;1.00;;;24.50;61.20;;;;;;218896;1283;23348;-52
2023/08/07 18:31:50;;;;;;;0.90;0.80;;;24.40;61.10;;;;;;218947;1289;22603;-50
2023/08/07 18:36:54;;;;;;;3.20;1.00;;;24.40;61.40;;;;;;218919;1276;25381;-49
2023/08/07 18:42:00;;;;;;;1.00;0.90;;;24.40;61.00;;;;;;218938;1276;22558;-50
2023/08/07 18:47:05;;;;;;;0.70;0.70;;;24.40;61.00;;;;;;218733;1270;22540;-52
2023/08/07 18:52:10;;;;;;;1.80;0.90;;;24.50;61.60;;;;;;218861;1279;25666;-51
2023/08/07 18:57:16;;;;;;;1.00;0.90;;;24.40;61.10;;;;;;219015;1277;22541;-49
2023/08/07 19:02:21;;;;;;;3.20;0.80;;;24.40;61.00;;;;;;218952;1283;22604;-51
2023/08/07 19:07:27;;;;;;;1.60;0.80;;;24.40;61.30;;;;;;218825;1283;23971;-50
2023/08/07 19:12:32;;;;;;;0.90;0.60;;;24.30;60.90;;;;;;218946;1270;22547;-50
2023/08/07 19:17:41;;;;;;;0.50;0.40;;;24.40;61.50;;;;;;218944;1283;22625;-49
2023/08/07 19:22:46;;;;;;;0.60;0.60;;;24.40;60.90;;;;;;219032;1281;22996;-50
2023/08/07 19:27:51;;;;;;;1.60;0.80;;;24.40;60.30;;;;;;219060;1276;22649;-51
2023/08/07 19:32:59;;;;;;;0.70;0.60;;;24.30;61.10;;;;;;218982;1283;25792;-52
2023/08/07 19:38:05;;;;;;;2.80;1.00;;;24.30;60.80;;;;;;218973;1283;22676;-52
2023/08/07 19:43:10;;;;;;;0.70;0.60;;;24.30;61.30;;;;;;218683;1277;24237;-51
2023/08/07 19:48:15;;;;;;;0.80;0.60;;;24.30;60.60;;;;;;218898;1283;23307;-49
2023/08/07 19:53:20;;;;;;;0.60;0.60;;;24.30;60.50;;;;;;218848;1286;22550;-50
2023/08/07 19:58:25;;;;;;;0.90;0.70;;;24.30;60.50;;;;;;218967;1283;22925;-51
2023/08/07 20:03:29;;;;;;;0.80;0.70;;;24.20;60.50;;;;;;218823;1275;25269;-47
2023/08/07 20:08:34;;;;;;;1.40;0.70;;;24.20;60.50;;;;;;218933;1276;22553;-53
2023/08/07 20:13:39;;;;;;;10.40;1.70;;;24.20;61.00;;;;;;219007;1285;24906;-50
2023/08/07 20:18:44;;;;;;;23.70;1.50;;;24.30;60.80;;;;;;218749;1282;22765;-48
2023/08/07 20:23:49;;;;;;;8.30;1.30;;;24.30;60.80;;;;;;218943;1277;24449;-49
2023/08/07 20:28:55;;;;;;;5.50;1.40;;;24.40;60.90;;;;;;219006;1283;25425;-46
2023/08/07 20:33:59;;;;;;;10.40;1.40;;;24.50;61.10;;;;;;218883;1286;25299;-48
2023/08/07 20:39:04;;;;;;;9.70;1.20;;;24.10;61.30;;;;;;218820;1290;24241;-53
2023/08/07 20:44:08;;;;;;;5.20;1.30;;;24.20;60.50;;;;;;219079;1286;24227;-55
2023/08/07 20:49:12;;;;;;;10.20;1.40;;;24.10;60.40;;;;;;218877;1276;25402;-51
2023/08/07 20:54:17;;;;;;;1.70;0.90;;;24.10;58.60;;;;;;219250;1283;24400;-57
2023/08/07 20:59:22;;;;;;;4.30;1.80;;;24.10;59.60;;;;;;218936;1277;22602;-56
2023/08/07 21:04:29;;;;;;;2.10;1.10;;;24.20;60.00;;;;;;219045;1286;25385;-56
2023/08/07 21:09:34;;;;;;;3.40;1.10;;;24.30;59.80;;;;;;218681;1285;22548;-57
2023/08/07 21:14:38;;;;;;;2.20;1.00;;;24.20;60.20;;;;;;218984;1282;24432;-58
2023/08/07 21:19:42;;;;;;;8.20;1.40;;;24.20;60.50;;;;;;219012;1289;22655;-57
2023/08/07 21:24:47;;;;;;;10.30;1.30;;;24.20;60.30;;;;;;218659;1286;22737;-58
2023/08/07 21:29:51;;;;;;;9.10;1.50;;;24.20;60.40;;;;;;218830;1288;22588;-59
2023/08/07 21:34:56;;;;;;;3.90;1.50;;;24.30;61.30;;;;;;218692;1289;24986;-58
2023/08/07 21:40:00;;;;;;;4.40;1.50;;;24.40;61.70;;;;;;218860;1277;22555;-58
2023/08/07 21:45:06;;;;;;;5.00;1.50;;;24.30;62.40;;;;;;218945;1283;22691;-58
2023/08/07 21:50:13;;;;;;;5.20;1.60;;;24.40;61.80;;;;;;218744;1283;24230;-58
2023/08/07 21:55:18;;;;;;;9.80;1.60;;;24.50;62.30;;;;;;218867;1282;25359;-58
2023/08/07 22:00:22;;;;;;;2.40;1.20;;;24.50;62.20;;;;;;218923;1283;23913;-57
2023/08/07 22:05:26;;;;;;;1.40;1.10;;;24.40;61.90;;;;;;218668;1277;22536;-58
2023/08/07 22:10:32;;;;;;;3.90;1.40;;;24.40;62.20;;;;;;218718;1282;24288;-56
2023/08/07 22:15:37;;;;;;;4.50;1.30;;;24.40;62.30;;;;;;218746;1283;24067;-58
2023/08/07 22:20:42;;;;;;;4.60;1.40;;;24.50;62.80;;;;;;218794;1283;24225;-59
2023/08/07 22:25:47;;;;;;;3.50;1.20;;;24.50;62.40;;;;;;218827;1289;22534;-57
2023/08/07 22:30:51;;;;;;;3.70;1.10;;;24.40;62.90;;;;;;218812;1283;24207;-56
2023/08/07 22:35:55;;;;;;;5.00;0.90;;;24.50;62.70;;;;;;218631;1276;24230;-57
2023/08/07 22:41:00;;;;;;;2.00;1.00;;;24.40;62.70;;;;;;218945;1280;25344;-57
2023/08/07 22:46:04;;;;;;;1.60;0.90;;;24.40;62.60;;;;;;218773;1286;25485;-56
2023/08/07 22:51:09;;;;;;;2.90;0.80;;;24.30;62.80;;;;;;218864;1279;22552;-57
2023/08/07 22:56:14;;;;;;;2.10;0.80;;;24.30;63.10;;;;;;218797;1289;22545;-56
2023/08/07 23:01:18;;;;;;;2.60;1.40;;;24.30;63.70;;;;;;218853;1283;25858;-56
2023/08/07 23:06:23;;;;;;;1.80;1.10;;;24.30;63.90;;;;;;218742;1283;22529;-55
2023/08/07 23:11:27;;;;;;;1.30;1.00;;;24.30;64.20;;;;;;218786;1283;22688;-63
2023/08/07 23:16:31;;;;;;;3.10;1.70;;;24.40;63.60;;;;;;218822;1279;22540;-63
2023/08/07 23:21:36;;;;;;;2.20;1.10;;;24.40;63.30;;;;;;218788;1286;24231;-64
2023/08/07 23:26:40;;;;;;;3.40;1.00;;;24.40;63.50;;;;;;218824;1285;24074;-65
2023/08/07 23:31:44;;;;;;;2.60;1.00;;;24.40;63.70;;;;;;218688;1277;22600;-65
2023/08/07 23:36:49;;;;;;;2.50;1.00;;;24.30;63.60;;;;;;218888;1286;22546;-65
2023/08/07 23:41:54;;;;;;;1.40;1.00;;;24.30;63.80;;;;;;218762;1283;23024;-65
2023/08/07 23:46:58;;;;;;;2.60;1.00;;;24.30;63.80;;;;;;218778;1283;24231;-65
2023/08/07 23:52:03;;;;;;;2.40;1.20;;;24.20;63.80;;;;;;219016;1286;22536;-65
2023/08/07 23:57:08;;;;;;;1.50;0.90;;;24.30;63.70;;;;;;218932;1284;24158;-67
